Home   Weather   USA   Seattle   Past weeks
Flag for USA

Past Weather in Seattle, Washington, USA — August 2012

Currently: 36 °F. Fog. (Weather station: Seattle Boeing Field, USA). See more current weather

August 2012 Weather in Seattle — Graph

°F

High & Low Weather Summary for August 2012

 TemperatureHumidityPressure
High92 °F (Aug 5, 5:53 pm)93% (Aug 7, 3:53 am)30.22 "Hg (Aug 7, 3:53 am)
Low50 °F (Aug 24, 5:53 am)26% (Aug 16, 3:53 pm)29.73 "Hg (Aug 25, 7:53 pm)
Average67 °F62%30.01 "Hg
* Reported Aug 1 12:53 am — Aug 31 11:53 pm, Seattle. Weather by CustomWeather, © 2022

Note: Actual official high and low records may vary slightly from our data, if they occured in-between our weather recording intervals... More about our weather records

Seattle Weather History for August 1, 2012

Scroll right to see more
 ConditionsComfort  
Time TempWeatherWind HumidityBarometerVisibility
12:53 am
Wed, Aug 1
59 °FClear.No wind75%30.18 "Hg10 mi
1:53 am58 °FPassing clouds.No wind78%30.18 "Hg10 mi
2:53 am58 °FClear.No wind78%30.17 "Hg10 mi
3:53 am57 °FClear.No wind81%30.18 "Hg10 mi
4:53 am56 °FClear.No wind84%30.19 "Hg10 mi
5:53 am56 °FSunny.No wind81%30.19 "Hg10 mi
6:53 am57 °FPassing clouds.No wind81%30.20 "Hg10 mi
8:00 am57 °FOvercast.6 mph82%30.22 "Hg10 mi
8:53 am59 °FOvercast.No wind78%30.22 "Hg10 mi
9:53 am60 °FOvercast.No wind78%30.22 "Hg10 mi
10:53 am64 °FBroken clouds.No wind70%30.21 "Hg10 mi
11:53 am65 °FPartly sunny.3 mph68%30.21 "Hg10 mi
12:53 pm67 °FScattered clouds.3 mph61%30.20 "Hg10 mi
1:53 pm71 °FPassing clouds.3 mph55%30.20 "Hg10 mi
2:53 pm72 °FSunny.5 mph53%30.19 "Hg10 mi
3:53 pm74 °FSunny.5 mph50%30.17 "Hg10 mi
4:53 pm75 °FSunny.5 mph50%30.16 "Hg10 mi
5:53 pm74 °FSunny.6 mph52%30.14 "Hg10 mi
6:53 pm72 °FSunny.7 mph53%30.14 "Hg10 mi
7:53 pm69 °FSunny.5 mph59%30.14 "Hg10 mi
8:53 pm67 °FClear.5 mph63%30.14 "Hg10 mi
9:53 pm64 °FClear.3 mph68%30.15 "Hg10 mi
10:53 pm62 °FOvercast.5 mph73%30.16 "Hg10 mi
11:53 pm60 °FClear.No wind75%30.16 "Hg10 mi
Weather by CustomWeather, © 2022

See weather overview